Portada
METAR-TAF:

METAR-TAF

Aeroports :

Pontiac Municipal Airport

Pontiac, Illinois, Estats Units d'Amèrica

latitud: 40-55-25N, longitud: 088-37-31W, altitud: 201 m

Observació

L'informe es va fer fa 16 minuts, a les 23:15 UTC
Vent 8 kt del Sud/Sud-Est
Temperatura 29°C
Humitat 55%
Pressió 1011 hPa
Visibilitat: 16.1 km
Núvols disperses a una alçada de 5500 ft

METAR: KPNT 242315Z AUTO 16008KT 10SM SCT055 29/19 A2986 RMK AO2 T02940186

Hora: 18:31 (23:31 UTC)


TAF: manca

Observacions i pronòstics meteorològics de més de 4000 aeroports (METAR i TAF).

Les estacions disponibles són els punts grocs i vermells al mapa.

Posi el ratolí al punt desitjat per veure el nom de l'estació.

Feu clic per veure les observacions i els pronòstics meteorològics.

Per canviar el mapa: feu clic els botons verds amb una creu de color negre per apropar; al botó verd amb un guió per allunyar la imatge; o en les fletxes verdes per a mapes adjacents.


METAR-TAF: